createdAt,value
2023-03-27T00:01:28.026Z,101177.88
2023-03-27T00:03:55.692Z,101184.44
2023-03-27T00:06:34.610Z,101193.25
2023-03-27T00:09:03.739Z,101204.94
2023-03-27T00:11:30.578Z,101199.56
2023-03-27T00:13:57.542Z,101198.88
2023-03-27T00:16:26.846Z,101225.47
2023-03-27T00:18:54.724Z,101235.28
2023-03-27T00:21:22.603Z,101241.38
2023-03-27T00:23:50.325Z,101242.16
2023-03-27T00:26:17.582Z,101229.25
2023-03-27T00:28:51.010Z,101231.34
2023-03-27T00:31:18.206Z,101236.38
2023-03-27T00:33:46.747Z,101231.84
2023-03-27T00:36:15.389Z,101239.25
2023-03-27T00:38:43.945Z,101244.13
2023-03-27T00:41:11.154Z,101242.97
2023-03-27T00:43:46.272Z,101249.72
2023-03-27T00:46:17.637Z,101244.69
2023-03-27T00:48:52.120Z,101252.94
2023-03-27T00:51:20.276Z,101250.09
2023-03-27T00:53:52.417Z,101251.00
2023-03-27T00:56:20.151Z,101255.28
2023-03-27T00:58:50.021Z,101255.66
2023-03-27T01:01:19.810Z,101257.66
2023-03-27T01:03:50.505Z,101262.19
2023-03-27T01:06:21.461Z,101268.19
2023-03-27T01:08:48.704Z,101273.88
2023-03-27T01:11:43.852Z,101279.13
2023-03-27T01:14:24.386Z,101280.00
2023-03-27T01:17:36.225Z,101277.53
2023-03-27T01:20:23.190Z,101295.75
2023-03-27T01:23:02.290Z,101288.00
2023-03-27T01:25:57.558Z,101302.03
2023-03-27T01:28:29.138Z,101300.66
2023-03-27T01:31:00.192Z,101303.75
2023-03-27T01:33:47.109Z,101308.66
2023-03-27T01:36:23.724Z,101307.72
2023-03-27T01:39:19.964Z,101311.03
2023-03-27T01:41:56.633Z,101305.91
2023-03-27T01:44:54.772Z,101303.50
2023-03-27T01:47:39.862Z,101305.47
2023-03-27T01:50:24.200Z,101307.84
2023-03-27T01:53:05.580Z,101320.97
2023-03-27T01:55:36.817Z,101319.22
2023-03-27T01:58:28.279Z,101328.97
2023-03-27T02:01:00.640Z,101328.88
2023-03-27T02:03:33.760Z,101337.38
2023-03-27T02:06:06.015Z,101339.66
2023-03-27T02:08:45.024Z,101347.31
2023-03-27T02:11:15.483Z,101353.50
2023-03-27T02:13:50.471Z,101343.13
2023-03-27T02:16:20.286Z,101345.69
2023-03-27T02:18:56.836Z,101336.81
2023-03-27T02:21:24.314Z,101349.53
2023-03-27T02:23:53.145Z,101347.47
2023-03-27T02:26:20.250Z,101347.00
2023-03-27T02:29:35.855Z,101360.50
2023-03-27T02:32:26.982Z,101359.59
2023-03-27T02:35:05.492Z,101358.50
2023-03-27T02:38:04.594Z,101354.94
2023-03-27T02:40:52.092Z,101365.97
2023-03-27T02:43:42.383Z,101367.06
2023-03-27T02:46:21.951Z,101368.56
2023-03-27T02:48:52.992Z,101364.44
2023-03-27T02:51:25.014Z,101371.22
2023-03-27T02:54:00.217Z,101375.81
2023-03-27T02:56:32.262Z,101383.97
2023-03-27T02:59:04.156Z,101385.31
2023-03-27T03:01:36.525Z,101385.78
2023-03-27T03:04:29.984Z,101395.22
2023-03-27T03:07:06.746Z,101395.88
2023-03-27T03:09:34.583Z,101405.44
2023-03-27T03:12:08.203Z,101407.84
2023-03-27T03:14:41.489Z,101408.75
2023-03-27T03:17:08.662Z,101412.97
2023-03-27T03:19:36.094Z,101419.84
2023-03-27T03:22:04.503Z,101423.41
2023-03-27T03:24:34.493Z,101435.13
2023-03-27T03:27:05.756Z,101429.28
2023-03-27T03:29:43.748Z,101444.09
2023-03-27T03:32:16.587Z,101448.19
2023-03-27T03:34:48.197Z,101444.56
2023-03-27T03:37:15.873Z,101457.97
2023-03-27T03:39:43.070Z,101463.44
2023-03-27T03:42:10.461Z,101463.50
2023-03-27T03:44:51.535Z,101457.34
2023-03-27T03:47:20.652Z,101456.81
2023-03-27T03:49:47.866Z,101453.00
2023-03-27T03:52:14.953Z,101465.97
2023-03-27T03:54:42.637Z,101468.22
2023-03-27T03:57:10.078Z,101472.69
2023-03-27T03:59:37.262Z,101464.78
2023-03-27T04:02:30.244Z,101487.34
2023-03-27T04:05:08.616Z,101488.09
2023-03-27T04:07:36.852Z,101498.44
2023-03-27T04:10:29.713Z,101498.22
2023-03-27T04:12:58.954Z,101495.31
2023-03-27T04:15:28.964Z,101494.56
2023-03-27T04:18:21.842Z,101498.06
2023-03-27T04:20:54.599Z,101510.88
2023-03-27T04:23:31.427Z,101510.81
2023-03-27T04:26:00.440Z,101520.69
2023-03-27T04:28:36.088Z,101517.84
2023-03-27T04:31:22.914Z,101531.34
2023-03-27T04:34:09.407Z,101540.63
2023-03-27T04:36:42.573Z,101541.03
2023-03-27T04:39:11.972Z,101554.66
2023-03-27T04:41:38.890Z,101553.59
2023-03-27T04:44:07.283Z,101552.16
2023-03-27T04:46:38.443Z,101551.78
2023-03-27T04:49:08.671Z,101557.06
2023-03-27T04:51:56.315Z,101556.72
2023-03-27T04:54:26.701Z,101558.66
2023-03-27T04:56:53.588Z,101556.53
2023-03-27T04:59:22.436Z,101562.00
2023-03-27T05:02:13.178Z,101566.06
2023-03-27T05:04:51.296Z,101565.13
2023-03-27T05:07:20.202Z,101567.06
2023-03-27T05:09:47.951Z,101569.91
2023-03-27T05:12:14.896Z,101577.44
2023-03-27T05:14:49.260Z,101585.38
2023-03-27T05:17:34.680Z,101594.63
2023-03-27T05:20:01.940Z,101599.53
2023-03-27T05:22:32.355Z,101595.31
2023-03-27T05:25:08.647Z,101599.00
2023-03-27T05:27:35.668Z,101606.38
2023-03-27T05:30:02.697Z,101604.88
2023-03-27T05:32:30.409Z,101606.38
2023-03-27T05:35:12.414Z,101608.94
2023-03-27T05:37:47.630Z,101614.25
2023-03-27T05:40:25.951Z,101624.25
2023-03-27T05:42:53.728Z,101629.88
2023-03-27T05:45:22.535Z,101634.16
2023-03-27T05:47:52.207Z,101651.47
2023-03-27T05:50:21.723Z,101645.25
2023-03-27T05:52:55.202Z,101653.56
2023-03-27T05:55:27.991Z,101658.59
2023-03-27T05:57:55.960Z,101660.41
2023-03-27T06:00:25.945Z,101665.47
2023-03-27T06:02:59.320Z,101668.59
2023-03-27T06:05:41.683Z,101671.69
2023-03-27T06:08:11.770Z,101673.56
2023-03-27T06:10:43.771Z,101672.03
2023-03-27T06:13:24.249Z,101684.84
2023-03-27T06:16:03.544Z,101685.00
2023-03-27T06:18:50.742Z,101676.25
2023-03-27T06:21:19.251Z,101692.16
2023-03-27T06:23:46.129Z,101689.75
2023-03-27T06:26:15.915Z,101688.19
2023-03-27T06:28:43.628Z,101701.03
2023-03-27T06:31:12.665Z,101702.28
2023-03-27T06:33:43.981Z,101707.47
2023-03-27T06:36:25.404Z,101714.38
2023-03-27T06:38:54.415Z,101719.94
2023-03-27T06:41:21.221Z,101707.06
2023-03-27T06:44:05.084Z,101714.59
2023-03-27T06:46:45.926Z,101713.94
2023-03-27T06:49:22.398Z,101719.13
2023-03-27T06:51:49.795Z,101724.66
2023-03-27T06:54:20.729Z,101724.50
2023-03-27T06:56:51.773Z,101730.78
2023-03-27T06:59:21.618Z,101731.84
2023-03-27T07:01:54.027Z,101739.59
2023-03-27T07:04:42.867Z,101732.22
2023-03-27T07:07:25.767Z,101737.66
2023-03-27T07:09:52.714Z,101751.13
2023-03-27T07:12:25.160Z,101755.22
2023-03-27T07:14:52.005Z,101777.59
2023-03-27T07:17:19.038Z,101768.66
2023-03-27T07:19:50.611Z,101763.22
2023-03-27T07:22:21.156Z,101766.00
2023-03-27T07:24:48.025Z,101770.16
2023-03-27T07:27:16.694Z,101771.53
2023-03-27T07:29:46.051Z,101780.19
2023-03-27T07:32:33.838Z,101782.66
2023-03-27T07:35:08.639Z,101785.94
2023-03-27T07:37:56.194Z,101789.06
2023-03-27T07:41:07.209Z,101785.75
2023-03-27T07:44:02.918Z,101791.31
2023-03-27T07:46:41.324Z,101787.38
2023-03-27T07:49:09.496Z,101801.72
2023-03-27T07:51:38.887Z,101804.06
2023-03-27T07:54:07.286Z,101804.84
2023-03-27T07:56:38.018Z,101812.69
2023-03-27T07:59:24.297Z,101814.38
2023-03-27T08:01:52.021Z,101818.50
2023-03-27T08:04:20.906Z,101814.63
2023-03-27T08:07:05.355Z,101819.59
2023-03-27T08:09:32.848Z,101817.47
2023-03-27T08:11:59.982Z,101825.75
2023-03-27T08:14:27.242Z,101836.81
2023-03-27T08:17:08.655Z,101827.22
2023-03-27T08:19:42.049Z,101840.72
2023-03-27T08:22:09.311Z,101844.63
2023-03-27T08:24:56.343Z,101845.25
2023-03-27T08:27:25.069Z,101852.81
2023-03-27T08:30:02.810Z,101852.97
2023-03-27T08:32:33.869Z,101840.69
2023-03-27T08:35:07.508Z,101849.56
2023-03-27T08:37:35.006Z,101852.28
2023-03-27T08:40:28.385Z,101854.34
2023-03-27T08:43:26.357Z,101857.13
2023-03-27T08:45:59.525Z,101870.53
2023-03-27T08:48:40.367Z,101856.09
2023-03-27T08:51:14.199Z,101853.03
2023-03-27T08:54:03.088Z,101860.41
2023-03-27T08:56:32.106Z,101865.69
2023-03-27T08:58:58.897Z,101863.44
2023-03-27T09:01:35.617Z,101876.22
2023-03-27T09:04:27.202Z,101863.53
2023-03-27T09:07:02.631Z,101872.22
2023-03-27T09:09:55.922Z,101861.72
2023-03-27T09:13:07.676Z,101866.88
2023-03-27T09:15:41.728Z,101870.72
2023-03-27T09:18:18.493Z,101866.47
2023-03-27T09:20:51.002Z,101869.63
2023-03-27T09:23:55.452Z,101866.94
2023-03-27T09:26:41.529Z,101861.63
2023-03-27T09:29:42.425Z,101865.28
2023-03-27T09:32:39.191Z,101862.84
2023-03-27T09:35:06.337Z,101863.47
2023-03-27T09:37:34.113Z,101861.50
2023-03-27T09:40:06.133Z,101873.34
2023-03-27T09:42:37.734Z,101867.75
2023-03-27T09:45:07.976Z,101872.91
2023-03-27T09:47:57.213Z,101870.78
2023-03-27T09:50:35.183Z,101869.09
2023-03-27T09:53:16.088Z,101878.63
2023-03-27T09:56:13.566Z,101886.06
2023-03-27T09:58:47.056Z,101892.69
2023-03-27T10:01:27.881Z,101892.00
2023-03-27T10:04:00.553Z,101887.47
2023-03-27T10:06:51.892Z,101889.97
2023-03-27T10:10:03.692Z,101900.09
2023-03-27T10:12:32.856Z,101894.22
2023-03-27T10:15:03.537Z,101905.22
2023-03-27T10:17:40.375Z,101899.06
2023-03-27T10:20:17.489Z,101909.78
2023-03-27T10:23:08.662Z,101917.91
2023-03-27T10:25:42.083Z,101935.25
2023-03-27T10:28:36.669Z,101951.44
2023-03-27T10:31:38.005Z,101958.84
2023-03-27T10:34:29.455Z,101946.66
2023-03-27T10:37:31.139Z,101956.03
2023-03-27T10:40:34.610Z,101955.44
2023-03-27T10:43:14.179Z,101963.00
2023-03-27T10:45:49.873Z,101953.13
2023-03-27T10:48:29.157Z,101948.50
2023-03-27T10:50:59.356Z,101948.25
2023-03-27T10:53:52.400Z,101950.81
2023-03-27T10:56:41.343Z,101961.44
2023-03-27T10:59:21.556Z,101955.22
2023-03-27T11:02:01.868Z,101958.31
2023-03-27T11:04:38.861Z,101958.75
2023-03-27T11:07:17.996Z,101961.78
2023-03-27T11:09:53.910Z,101963.84
2023-03-27T11:12:22.268Z,101963.50
2023-03-27T11:15:03.077Z,101971.81
2023-03-27T11:17:42.224Z,101968.94
2023-03-27T11:20:54.217Z,101971.75
2023-03-27T11:23:37.476Z,101972.06
2023-03-27T11:26:24.560Z,101976.16
2023-03-27T11:29:40.918Z,101976.31
2023-03-27T11:32:18.703Z,101979.41
2023-03-27T11:35:00.040Z,101973.41
2023-03-27T11:37:55.070Z,101962.19
2023-03-27T11:40:37.046Z,101971.53
2023-03-27T11:43:04.672Z,101972.81
2023-03-27T11:45:51.345Z,101960.47
2023-03-27T11:48:31.517Z,101978.78
2023-03-27T11:51:03.941Z,101967.78
2023-03-27T11:54:00.551Z,101976.97
2023-03-27T11:56:59.321Z,101970.09
2023-03-27T12:00:05.343Z,101970.16
2023-03-27T12:02:45.750Z,101965.84
2023-03-27T12:05:43.199Z,101981.19
2023-03-27T12:08:31.859Z,101984.34
2023-03-27T12:11:02.047Z,101989.22
2023-03-27T12:14:01.766Z,101984.91
2023-03-27T12:17:03.251Z,101981.06
2023-03-27T12:20:00.641Z,101979.53
2023-03-27T12:22:42.250Z,101983.03
2023-03-27T12:25:29.987Z,101981.16
2023-03-27T12:28:35.279Z,101985.97
2023-03-27T12:31:28.903Z,101990.34
2023-03-27T12:34:23.042Z,101988.75
2023-03-27T12:36:50.465Z,101983.56
2023-03-27T12:39:27.397Z,101991.03
2023-03-27T12:42:06.024Z,101999.47
2023-03-27T12:45:29.827Z,101993.59
2023-03-27T12:48:17.694Z,101989.94
2023-03-27T12:50:48.497Z,101991.59
2023-03-27T12:53:31.061Z,101998.00
2023-03-27T12:56:10.333Z,101993.69
2023-03-27T12:58:38.354Z,102002.63
2023-03-27T13:01:12.939Z,102001.41
2023-03-27T13:04:07.586Z,102005.03
2023-03-27T13:06:44.786Z,101995.06
2023-03-27T13:09:29.504Z,102000.34
2023-03-27T13:12:21.597Z,101992.91
2023-03-27T13:15:08.690Z,101996.09
2023-03-27T13:17:40.638Z,101994.44
2023-03-27T13:20:16.717Z,101994.44
2023-03-27T13:23:09.832Z,101994.56
2023-03-27T13:26:05.295Z,101986.94
2023-03-27T13:28:36.195Z,101996.47
2023-03-27T13:31:12.476Z,102007.63
2023-03-27T13:34:28.822Z,102008.16
2023-03-27T13:37:09.728Z,102014.47
2023-03-27T13:39:48.976Z,102010.59
2023-03-27T13:42:18.323Z,102004.47
2023-03-27T13:45:07.793Z,102020.47
2023-03-27T13:48:09.361Z,102027.91
2023-03-27T13:50:59.616Z,102024.81
2023-03-27T13:53:38.676Z,102024.56
2023-03-27T13:56:35.353Z,102015.38
2023-03-27T14:00:08.430Z,102007.25
2023-03-27T14:03:15.497Z,102021.47
2023-03-27T14:06:13.275Z,102022.78
2023-03-27T14:09:11.143Z,102023.31
2023-03-27T14:12:20.193Z,102028.38
2023-03-27T14:15:23.396Z,102024.97
2023-03-27T14:18:35.553Z,102028.50
2023-03-27T14:21:04.069Z,102025.22
2023-03-27T14:23:49.676Z,102028.47
2023-03-27T14:26:29.741Z,102028.72
2023-03-27T14:29:02.470Z,102028.59
2023-03-27T14:31:38.085Z,102020.47
2023-03-27T14:34:47.133Z,102024.66
2023-03-27T14:37:39.737Z,102018.16
2023-03-27T14:40:28.839Z,102015.38
2023-03-27T14:43:00.140Z,102024.63
2023-03-27T14:45:31.788Z,102021.84
2023-03-27T14:48:23.869Z,102033.78
2023-03-27T14:50:54.415Z,102035.00
2023-03-27T14:53:28.286Z,102040.72
2023-03-27T14:56:27.410Z,102030.59
2023-03-27T14:59:11.521Z,102031.66
2023-03-27T15:02:02.084Z,102044.59
2023-03-27T15:04:30.275Z,102063.16
2023-03-27T15:07:14.362Z,102067.41
2023-03-27T15:10:06.335Z,102060.13
2023-03-27T15:12:52.855Z,102064.09
2023-03-27T15:15:40.344Z,102070.22
2023-03-27T15:18:15.437Z,102076.28
2023-03-27T15:20:42.901Z,102077.97
2023-03-27T15:23:29.607Z,102074.03
2023-03-27T15:26:00.169Z,102080.63
2023-03-27T15:28:38.310Z,102081.91
2023-03-27T15:31:05.876Z,102086.47
2023-03-27T15:33:37.755Z,102087.06
2023-03-27T15:36:09.787Z,102087.06
2023-03-27T15:38:44.992Z,102085.34
2023-03-27T15:41:15.153Z,102091.81
2023-03-27T15:43:43.936Z,102083.97
2023-03-27T15:46:17.729Z,102096.88
2023-03-27T15:48:46.339Z,102103.38
2023-03-27T15:51:30.438Z,102104.75
2023-03-27T15:53:57.533Z,102100.41
2023-03-27T15:56:37.103Z,102102.00
2023-03-27T15:59:12.021Z,102101.63
2023-03-27T16:01:41.433Z,102108.28
2023-03-27T16:04:28.396Z,102111.91
2023-03-27T16:07:12.107Z,102106.72
2023-03-27T16:09:55.087Z,102100.66
2023-03-27T16:12:28.279Z,102112.03
2023-03-27T16:15:00.213Z,102097.53
2023-03-27T16:17:40.518Z,102096.66
2023-03-27T16:20:11.485Z,102112.31
2023-03-27T16:22:39.123Z,102118.88
2023-03-27T16:25:08.843Z,102123.47
2023-03-27T16:27:47.177Z,102114.19
2023-03-27T16:30:36.109Z,102126.91
2023-03-27T16:33:04.050Z,102132.28
2023-03-27T16:35:32.578Z,102128.75
2023-03-27T16:37:59.826Z,102143.72
2023-03-27T16:40:26.773Z,102137.25
2023-03-27T16:42:53.582Z,102143.63
2023-03-27T16:45:20.579Z,102146.56
2023-03-27T16:47:51.571Z,102152.28
2023-03-27T16:50:22.545Z,102148.19
2023-03-27T16:52:50.065Z,102155.56
2023-03-27T16:55:17.428Z,102161.38
2023-03-27T16:57:46.157Z,102163.84
2023-03-27T17:00:15.054Z,102163.63
2023-03-27T17:02:44.399Z,102169.97
2023-03-27T17:05:11.689Z,102171.84
2023-03-27T17:07:38.506Z,102175.91
2023-03-27T17:10:06.673Z,102174.22
2023-03-27T17:12:33.534Z,102181.22
2023-03-27T17:15:01.202Z,102181.91
2023-03-27T17:17:30.556Z,102178.44
2023-03-27T17:19:57.357Z,102185.13
2023-03-27T17:22:26.517Z,102185.72
2023-03-27T17:24:57.289Z,102188.00
2023-03-27T17:27:26.939Z,102186.59
2023-03-27T17:29:55.874Z,102200.44
2023-03-27T17:32:24.798Z,102194.53
2023-03-27T17:34:52.242Z,102198.75
2023-03-27T17:37:21.045Z,102199.13
2023-03-27T17:39:48.854Z,102207.03
2023-03-27T17:42:16.022Z,102198.88
2023-03-27T17:44:44.594Z,102207.84
2023-03-27T17:47:11.825Z,102213.00
2023-03-27T17:49:38.674Z,102211.66
2023-03-27T17:52:08.413Z,102211.47
2023-03-27T17:54:35.378Z,102218.63
2023-03-27T17:57:02.526Z,102221.06
2023-03-27T17:59:31.806Z,102226.84
2023-03-27T18:01:59.775Z,102232.00
2023-03-27T18:04:26.726Z,102229.88
2023-03-27T18:06:53.639Z,102232.00
2023-03-27T18:09:20.966Z,102232.47
2023-03-27T18:11:48.200Z,102236.06
2023-03-27T18:14:15.143Z,102236.06
2023-03-27T18:16:42.350Z,102234.72
2023-03-27T18:19:09.309Z,102231.22
2023-03-27T18:21:36.237Z,102232.81
2023-03-27T18:24:03.599Z,102239.34
2023-03-27T18:26:30.459Z,102239.38
2023-03-27T18:28:57.805Z,102255.13
2023-03-27T18:31:25.127Z,102248.16
2023-03-27T18:33:52.295Z,102251.91
2023-03-27T18:36:19.247Z,102252.03
2023-03-27T18:38:49.522Z,102250.88
2023-03-27T18:41:17.157Z,102258.81
2023-03-27T18:43:44.247Z,102258.53
2023-03-27T18:46:16.840Z,102263.13
2023-03-27T18:48:45.633Z,102268.00
2023-03-27T18:51:12.864Z,102267.44
2023-03-27T18:53:40.065Z,102263.69
2023-03-27T18:56:08.093Z,102260.72
2023-03-27T18:58:35.900Z,102266.38
2023-03-27T19:01:09.015Z,102267.75
2023-03-27T19:03:36.585Z,102266.63
2023-03-27T19:06:05.654Z,102274.19
2023-03-27T19:08:33.285Z,102275.00
2023-03-27T19:11:00.275Z,102273.41
2023-03-27T19:13:45.785Z,102280.13
2023-03-27T19:16:39.127Z,102276.63
2023-03-27T19:19:15.904Z,102274.19
2023-03-27T19:21:57.282Z,102276.09
2023-03-27T19:24:40.732Z,102282.81
2023-03-27T19:27:23.920Z,102273.94
2023-03-27T19:29:53.661Z,102281.22
2023-03-27T19:32:21.558Z,102269.84
2023-03-27T19:34:48.964Z,102284.72
2023-03-27T19:37:16.233Z,102271.75
2023-03-27T19:39:43.302Z,102273.34
2023-03-27T19:42:10.060Z,102264.69
2023-03-27T19:44:38.134Z,102274.97
2023-03-27T19:47:07.413Z,102275.72
2023-03-27T19:49:34.525Z,102271.75
2023-03-27T19:52:31.097Z,102276.59
2023-03-27T19:54:59.133Z,102277.38
2023-03-27T19:57:26.200Z,102270.31
2023-03-27T19:59:53.334Z,102281.75
2023-03-27T20:02:21.237Z,102289.66
2023-03-27T20:04:49.244Z,102288.00
2023-03-27T20:07:16.043Z,102289.09
2023-03-27T20:09:42.866Z,102293.69
2023-03-27T20:12:11.445Z,102294.75
2023-03-27T20:14:38.362Z,102295.31
2023-03-27T20:17:07.937Z,102294.50
2023-03-27T20:19:46.321Z,102293.16
2023-03-27T20:22:13.185Z,102301.25
2023-03-27T20:24:40.302Z,102298.56
2023-03-27T20:27:07.131Z,102298.03
2023-03-27T20:29:34.817Z,102302.09
2023-03-27T20:32:01.785Z,102314.22
2023-03-27T20:34:28.605Z,102309.63
2023-03-27T20:36:59.006Z,102311.06
2023-03-27T20:39:49.346Z,102310.28
2023-03-27T20:42:18.732Z,102315.56
2023-03-27T20:44:46.697Z,102326.03
2023-03-27T20:47:15.207Z,102326.41
2023-03-27T20:49:45.337Z,102324.34
2023-03-27T20:52:14.212Z,102330.38
2023-03-27T20:54:41.476Z,102328.81
2023-03-27T20:57:10.437Z,102320.53
2023-03-27T20:59:37.791Z,102323.19
2023-03-27T21:02:05.188Z,102321.56
2023-03-27T21:04:32.140Z,102321.84
2023-03-27T21:06:59.284Z,102334.69
2023-03-27T21:09:27.421Z,102329.69
2023-03-27T21:11:55.376Z,102321.63
2023-03-27T21:14:22.846Z,102328.59
2023-03-27T21:16:50.599Z,102326.97
2023-03-27T21:19:19.994Z,102327.88
2023-03-27T21:21:47.124Z,102326.16
2023-03-27T21:24:14.029Z,102332.13
2023-03-27T21:26:41.581Z,102321.19
2023-03-27T21:29:12.789Z,102331.56
2023-03-27T21:31:40.747Z,102333.91
2023-03-27T21:34:08.066Z,102332.41
2023-03-27T21:36:35.087Z,102326.94
2023-03-27T21:39:01.790Z,102324.31
2023-03-27T21:41:28.949Z,102338.34
2023-03-27T21:43:56.184Z,102339.59
2023-03-27T21:46:23.154Z,102338.16
2023-03-27T21:48:50.925Z,102337.00
2023-03-27T21:51:18.306Z,102346.75
2023-03-27T21:53:45.984Z,102340.72
2023-03-27T21:56:13.080Z,102342.06
2023-03-27T21:58:39.848Z,102330.47
2023-03-27T22:01:07.187Z,102331.88
2023-03-27T22:03:34.128Z,102338.34
2023-03-27T22:06:11.557Z,102331.13
2023-03-27T22:08:40.596Z,102334.03
2023-03-27T22:11:07.555Z,102333.72
2023-03-27T22:13:36.323Z,102336.97
2023-03-27T22:16:14.365Z,102343.22
2023-03-27T22:18:42.040Z,102337.84
2023-03-27T22:21:22.316Z,102343.09
2023-03-27T22:23:50.879Z,102351.41
2023-03-27T22:26:18.941Z,102346.53
2023-03-27T22:28:46.101Z,102346.41
2023-03-27T22:31:13.162Z,102347.09
2023-03-27T22:33:40.564Z,102350.84
2023-03-27T22:36:09.929Z,102351.34
2023-03-27T22:38:36.856Z,102355.09
2023-03-27T22:41:05.440Z,102358.19
2023-03-27T22:43:32.518Z,102351.59
2023-03-27T22:46:11.766Z,102357.84
2023-03-27T22:48:38.979Z,102356.34
2023-03-27T22:51:06.638Z,102355.31
2023-03-27T22:53:33.814Z,102356.88
2023-03-27T22:56:01.635Z,102345.72
2023-03-27T22:58:29.838Z,102353.41
2023-03-27T23:01:38.976Z,102342.41
2023-03-27T23:04:06.306Z,102343.94
2023-03-27T23:06:33.264Z,102352.97
2023-03-27T23:09:01.011Z,102350.44
2023-03-27T23:11:28.403Z,102349.44
2023-03-27T23:13:55.360Z,102348.75
2023-03-27T23:16:22.765Z,102361.28
2023-03-27T23:18:49.687Z,102358.81
2023-03-27T23:21:17.888Z,102365.13
2023-03-27T23:23:45.301Z,102364.50
2023-03-27T23:26:12.883Z,102362.78
2023-03-27T23:28:41.748Z,102361.53
2023-03-27T23:31:13.168Z,102366.31
2023-03-27T23:33:42.302Z,102359.97
2023-03-27T23:36:11.876Z,102372.38
2023-03-27T23:38:39.136Z,102365.72
2023-03-27T23:41:07.130Z,102368.69
2023-03-27T23:43:34.583Z,102377.34
2023-03-27T23:46:02.092Z,102385.94
2023-03-27T23:48:29.865Z,102384.75
2023-03-27T23:50:57.255Z,102384.75
2023-03-27T23:53:28.521Z,102393.41
2023-03-27T23:55:56.464Z,102390.69
2023-03-27T23:58:25.025Z,102387.84
